Time;durP1;ratioP1;P1;durP2;ratioP2;P2;SDS_P1;SDS_P2;PMS_P1;PMS_P2;Temp;Humidity;BMP_temperature;BMP_pressure;BME280_temperature;BME280_humidity;BME280_pressure;Samples;Min_cycle;Max_cycle;Signal;HPM_P1;HPM_P2
2023/10/22 00:01:48;;;;;;;;;;;20.00;68.70;;;;;;5007408;28;1237;-71
2023/10/22 00:04:13;;;;;;;;;;;20.00;68.60;;;;;;5007105;28;1534;-71
2023/10/22 00:06:39;;;;;;;;;;;20.00;68.60;;;;;;5003277;28;1359;-71
2023/10/22 00:09:04;;;;;;;;;;;20.00;68.70;;;;;;5006632;28;1465;-70
2023/10/22 00:11:29;;;;;;;;;;;20.00;68.60;;;;;;5001488;28;1478;-71
2023/10/22 00:13:55;;;;;;;;;;;20.00;68.60;;;;;;5003388;28;1902;-71
2023/10/22 00:16:20;;;;;;;;;;;20.00;68.60;;;;;;5000406;28;1267;-71
2023/10/22 00:18:46;;;;;;;;;;;20.00;68.60;;;;;;5003821;28;1319;-71
2023/10/22 00:21:11;;;;;;;;;;;20.00;68.60;;;;;;5002864;28;1367;-70
2023/10/22 00:23:37;;;;;;;;;;;20.00;68.60;;;;;;5001031;28;1581;-71
2023/10/22 00:26:02;;;;;;;;;;;20.00;68.70;;;;;;5002263;28;1416;-70
2023/10/22 00:28:28;;;;;;;;;;;20.00;68.70;;;;;;4987557;28;1422;-71
2023/10/22 00:30:53;;;;;;;;;;;20.00;68.80;;;;;;4999690;28;1257;-70
2023/10/22 00:33:19;;;;;;;;;;;20.00;68.70;;;;;;5001890;28;1556;-71
2023/10/22 00:35:53;;;;;;;;;;;20.00;68.70;;;;;;5008903;28;1961;-71
2023/10/22 00:38:18;;;;;;;;;;;20.00;68.70;;;;;;5000825;28;1575;-71
2023/10/22 00:40:44;;;;;;;;;;;20.00;68.80;;;;;;5002792;28;1253;-72
2023/10/22 00:43:09;;;;;;;;;;;20.00;68.80;;;;;;5003428;28;1250;-71
2023/10/22 00:45:35;;;;;;;;;;;20.00;68.80;;;;;;5003686;28;1340;-71
2023/10/22 00:48:00;;;;;;;;;;;20.00;68.90;;;;;;5001928;28;1562;-71
2023/10/22 00:50:26;;;;;;;;;;;20.00;68.90;;;;;;4999341;28;1288;-71
2023/10/22 00:52:51;;;;;;;;;;;20.00;68.90;;;;;;5004909;28;936;-71
2023/10/22 00:55:17;;;;;;;;;;;20.00;68.90;;;;;;4998757;28;1954;-71
2023/10/22 00:57:42;;;;;;;;;;;20.00;68.90;;;;;;5005721;28;1171;-71
2023/10/22 01:00:08;;;;;;;;;;;20.00;68.90;;;;;;4999509;28;1315;-71
2023/10/22 01:02:34;;;;;;;;;;;20.00;68.90;;;;;;5002487;28;1442;-71
2023/10/22 01:05:00;;;;;;;;;;;20.00;68.90;;;;;;5002349;28;878;-71
2023/10/22 01:07:25;;;;;;;;;;;20.00;69.00;;;;;;5002626;28;1341;-71
2023/10/22 01:09:51;;;;;;;;;;;20.00;69.00;;;;;;4996274;28;1387;-71
2023/10/22 01:12:17;;;;;;;;;;;20.00;69.00;;;;;;5002968;28;1268;-71
2023/10/22 01:14:42;;;;;;;;;;;20.00;69.00;;;;;;5000770;28;1899;-71
2023/10/22 01:17:07;;;;;;;;;;;20.00;69.10;;;;;;5000023;28;1278;-71
2023/10/22 01:19:33;;;;;;;;;;;20.00;69.00;;;;;;4999015;28;1404;-71
2023/10/22 01:21:58;;;;;;;;;;;20.00;69.00;;;;;;4999788;28;1354;-71
2023/10/22 01:24:25;;;;;;;;;;;20.00;69.00;;;;;;5004825;28;1378;-71
2023/10/22 01:26:50;;;;;;;;;;;19.90;69.00;;;;;;5058915;22;1954;-68
2023/10/22 01:29:16;;;;;;;;;;;20.00;69.10;;;;;;5041033;28;1241;-68
2023/10/22 01:31:41;;;;;;;;;;;20.00;69.10;;;;;;5041851;28;1696;-68
2023/10/22 01:34:07;;;;;;;;;;;20.00;69.10;;;;;;5023414;28;1906;-68
2023/10/22 01:36:32;;;;;;;;;;;20.00;69.10;;;;;;5025787;28;1303;-68
2023/10/22 01:38:58;;;;;;;;;;;20.00;69.10;;;;;;5018522;28;1098;-68
2023/10/22 01:41:23;;;;;;;;;;;19.90;69.10;;;;;;5021493;28;1477;-68
2023/10/22 01:43:49;;;;;;;;;;;20.00;69.10;;;;;;5021437;28;1435;-68
2023/10/22 01:46:14;;;;;;;;;;;19.90;69.10;;;;;;5019561;28;1463;-68
2023/10/22 01:48:40;;;;;;;;;;;19.90;69.20;;;;;;5021575;28;1540;-68
2023/10/22 01:51:05;;;;;;;;;;;19.90;69.10;;;;;;5019447;28;1551;-68
2023/10/22 01:53:31;;;;;;;;;;;19.90;69.10;;;;;;5021674;28;1567;-68
2023/10/22 01:55:56;;;;;;;;;;;19.90;69.10;;;;;;5017840;28;1979;-68
2023/10/22 01:58:22;;;;;;;;;;;19.90;69.10;;;;;;5018774;28;1432;-68
2023/10/22 02:00:48;;;;;;;;;;;20.00;69.20;;;;;;5018981;28;1611;-68
2023/10/22 02:03:16;;;;;;;;;;;19.90;69.10;;;;;;5023240;28;1463;-68
2023/10/22 02:05:42;;;;;;;;;;;19.90;69.20;;;;;;5016555;28;1362;-68
2023/10/22 02:08:07;;;;;;;;;;;19.90;69.20;;;;;;5020016;28;1224;-68
2023/10/22 02:10:33;;;;;;;;;;;19.90;69.20;;;;;;5021825;28;1405;-68
2023/10/22 02:12:59;;;;;;;;;;;19.90;69.20;;;;;;5019972;28;1323;-68
2023/10/22 02:15:27;;;;;;;;;;;19.90;69.20;;;;;;5019723;28;1914;-68
2023/10/22 02:17:53;;;;;;;;;;;19.90;69.20;;;;;;5021046;28;1433;-68
2023/10/22 02:20:18;;;;;;;;;;;19.90;69.20;;;;;;5019597;28;1494;-68
2023/10/22 02:22:44;;;;;;;;;;;19.90;69.20;;;;;;5022551;28;1436;-68
2023/10/22 02:25:09;;;;;;;;;;;19.90;69.20;;;;;;5004370;28;1385;-68
2023/10/22 02:27:35;;;;;;;;;;;19.90;69.30;;;;;;5018464;28;1383;-68
2023/10/22 02:30:00;;;;;;;;;;;19.90;69.20;;;;;;5020265;28;894;-68
2023/10/22 02:32:26;;;;;;;;;;;19.90;69.20;;;;;;5017183;28;912;-68
2023/10/22 02:34:52;;;;;;;;;;;19.90;69.30;;;;;;5023976;28;1974;-68
2023/10/22 02:37:18;;;;;;;;;;;19.90;69.30;;;;;;5018608;28;1574;-68
2023/10/22 02:39:43;;;;;;;;;;;19.90;69.30;;;;;;5018694;28;1224;-68
2023/10/22 02:42:09;;;;;;;;;;;19.90;69.30;;;;;;5017643;28;1608;-68
2023/10/22 02:44:34;;;;;;;;;;;19.90;69.40;;;;;;5019252;28;1717;-68
2023/10/22 02:47:00;;;;;;;;;;;19.90;69.30;;;;;;5019242;28;1326;-68
2023/10/22 02:49:25;;;;;;;;;;;19.90;69.40;;;;;;5020778;28;1288;-68
2023/10/22 02:51:52;;;;;;;;;;;19.90;69.30;;;;;;5018953;28;1021;-68
2023/10/22 02:54:17;;;;;;;;;;;19.90;69.30;;;;;;5018046;28;1969;-68
2023/10/22 02:56:43;;;;;;;;;;;19.90;69.40;;;;;;5020157;28;1498;-68
2023/10/22 02:59:08;;;;;;;;;;;19.90;69.40;;;;;;5017482;28;1128;-68
2023/10/22 03:01:35;;;;;;;;;;;19.90;69.40;;;;;;5019326;28;1627;-68
2023/10/22 03:04:01;;;;;;;;;;;19.90;69.40;;;;;;5022693;28;1355;-68
2023/10/22 03:06:26;;;;;;;;;;;19.90;69.40;;;;;;5016076;28;1284;-67
2023/10/22 03:08:52;;;;;;;;;;;19.90;69.40;;;;;;5019869;28;1555;-67
2023/10/22 03:11:18;;;;;;;;;;;19.90;69.40;;;;;;5018429;28;1317;-68
2023/10/22 03:13:43;;;;;;;;;;;19.90;69.40;;;;;;5021526;28;1839;-68
2023/10/22 03:16:14;;;;;;;;;;;19.90;69.40;;;;;;5018095;28;1899;-67
2023/10/22 03:18:40;;;;;;;;;;;19.90;69.40;;;;;;5019227;28;1729;-67
2023/10/22 03:21:12;;;;;;;;;;;19.90;69.50;;;;;;5016663;28;1486;-67
2023/10/22 03:23:43;;;;;;;;;;;19.90;69.50;;;;;;5019558;28;1018;-67
2023/10/22 03:26:11;;;;;;;;;;;19.90;69.50;;;;;;5018097;28;1444;-67
2023/10/22 03:28:37;;;;;;;;;;;19.90;69.50;;;;;;5019087;28;1258;-67
2023/10/22 03:31:03;;;;;;;;;;;19.90;69.50;;;;;;5021567;28;1365;-68
2023/10/22 03:33:29;;;;;;;;;;;19.90;69.50;;;;;;5018463;28;927;-67
2023/10/22 03:35:54;;;;;;;;;;;19.90;69.50;;;;;;5020126;28;1930;-68
2023/10/22 03:38:20;;;;;;;;;;;19.90;69.50;;;;;;5017116;28;1164;-67
2023/10/22 03:40:45;;;;;;;;;;;19.90;69.50;;;;;;5022095;28;1145;-67
2023/10/22 03:43:11;;;;;;;;;;;19.90;69.50;;;;;;5019150;28;1373;-68
2023/10/22 03:45:37;;;;;;;;;;;19.90;69.50;;;;;;5016176;28;1443;-67
2023/10/22 03:48:03;;;;;;;;;;;19.90;69.60;;;;;;5017944;28;1381;-68
2023/10/22 03:50:28;;;;;;;;;;;19.90;69.60;;;;;;5016033;28;1263;-68
2023/10/22 03:52:54;;;;;;;;;;;19.90;69.60;;;;;;5017539;28;1509;-67
2023/10/22 03:55:19;;;;;;;;;;;19.90;69.50;;;;;;5020268;28;1959;-68
2023/10/22 03:57:45;;;;;;;;;;;19.90;69.60;;;;;;5017959;28;1335;-68
2023/10/22 04:00:10;;;;;;;;;;;19.90;69.60;;;;;;5019245;28;1536;-68
2023/10/22 04:02:36;;;;;;;;;;;19.80;69.60;;;;;;5018843;28;1587;-68
2023/10/22 04:05:02;;;;;;;;;;;19.90;69.60;;;;;;5019370;28;1278;-68
2023/10/22 04:07:27;;;;;;;;;;;19.80;69.60;;;;;;5018353;28;1202;-68
2023/10/22 04:09:53;;;;;;;;;;;19.90;69.60;;;;;;5022912;28;1429;-68
2023/10/22 04:12:19;;;;;;;;;;;19.80;69.60;;;;;;5020486;28;1377;-68
2023/10/22 04:14:44;;;;;;;;;;;19.80;69.60;;;;;;5020552;28;1973;-68
2023/10/22 04:17:10;;;;;;;;;;;19.90;69.70;;;;;;5023432;28;1431;-68
2023/10/22 04:19:35;;;;;;;;;;;19.80;69.60;;;;;;5020600;28;1428;-68
2023/10/22 04:22:01;;;;;;;;;;;19.80;69.60;;;;;;5020707;28;1133;-68
2023/10/22 04:24:26;;;;;;;;;;;19.80;69.60;;;;;;5023488;28;1363;-68
2023/10/22 04:26:52;;;;;;;;;;;19.80;69.60;;;;;;5022249;28;1660;-68
2023/10/22 04:29:17;;;;;;;;;;;19.80;69.60;;;;;;5017954;28;1410;-68
2023/10/22 04:31:43;;;;;;;;;;;19.80;69.70;;;;;;5019573;28;1391;-68
2023/10/22 04:34:08;;;;;;;;;;;19.80;69.60;;;;;;5021793;28;1903;-68
2023/10/22 04:36:33;;;;;;;;;;;19.80;69.60;;;;;;5021809;28;1437;-68
2023/10/22 04:38:59;;;;;;;;;;;19.80;69.70;;;;;;5019218;28;1527;-68
2023/10/22 04:41:25;;;;;;;;;;;19.80;69.60;;;;;;5020126;28;1336;-68
2023/10/22 04:43:50;;;;;;;;;;;19.80;69.70;;;;;;5022536;28;1259;-68
2023/10/22 04:46:16;;;;;;;;;;;19.80;69.70;;;;;;5020979;28;1306;-68
2023/10/22 04:48:41;;;;;;;;;;;19.80;69.70;;;;;;5023616;28;1379;-68
2023/10/22 04:51:07;;;;;;;;;;;19.80;69.60;;;;;;5024549;28;974;-68
2023/10/22 04:53:34;;;;;;;;;;;19.90;69.60;;;;;;5020033;28;1477;-67
2023/10/22 04:56:00;;;;;;;;;;;19.90;69.60;;;;;;5020438;28;2031;-68
2023/10/22 04:58:27;;;;;;;;;;;19.90;69.50;;;;;;5024382;28;1601;-68
2023/10/22 05:00:53;;;;;;;;;;;20.00;69.50;;;;;;5020676;28;1529;-69
2023/10/22 05:03:18;;;;;;;;;;;20.10;69.50;;;;;;5020031;28;1652;-67
2023/10/22 05:05:44;;;;;;;;;;;20.20;69.40;;;;;;5018040;28;2086;-66
2023/10/22 05:08:09;;;;;;;;;;;20.30;69.20;;;;;;5020174;28;1471;-71
2023/10/22 05:10:38;;;;;;;;;;;20.40;68.90;;;;;;5021166;28;1462;-70
2023/10/22 05:13:04;;;;;;;;;;;20.50;68.50;;;;;;5020425;28;1471;-70
2023/10/22 05:15:29;;;;;;;;;;;20.60;68.20;;;;;;5018037;28;1902;-70
2023/10/22 05:17:57;;;;;;;;;;;20.70;67.80;;;;;;5016954;28;1484;-69
2023/10/22 05:20:24;;;;;;;;;;;20.80;67.50;;;;;;5020045;28;1469;-69
2023/10/22 05:22:50;;;;;;;;;;;20.90;67.20;;;;;;5018101;28;1288;-68
2023/10/22 05:25:15;;;;;;;;;;;21.00;67.70;;;;;;5020671;28;1769;-68
2023/10/22 05:27:41;;;;;;;;;;;21.10;66.70;;;;;;5022485;28;1373;-67
2023/10/22 05:30:06;;;;;;;;;;;21.20;66.40;;;;;;5020619;28;1321;-71
2023/10/22 05:32:32;;;;;;;;;;;21.20;66.10;;;;;;5019243;28;1453;-68
2023/10/22 05:34:57;;;;;;;;;;;21.30;66.00;;;;;;5024355;28;1910;-68
2023/10/22 05:37:23;;;;;;;;;;;21.30;65.70;;;;;;5018952;28;1459;-68
2023/10/22 05:39:48;;;;;;;;;;;21.30;65.50;;;;;;5018187;28;1370;-69
2023/10/22 05:42:14;;;;;;;;;;;21.30;65.50;;;;;;5019455;28;1467;-69
2023/10/22 05:44:39;;;;;;;;;;;21.40;65.40;;;;;;5019363;28;1000;-67
2023/10/22 05:47:05;;;;;;;;;;;21.40;65.30;;;;;;5021046;28;1352;-67
2023/10/22 05:49:30;;;;;;;;;;;21.50;65.20;;;;;;5017823;28;1552;-69
2023/10/22 05:51:56;;;;;;;;;;;21.50;65.20;;;;;;5021075;28;1320;-66
2023/10/22 05:54:21;;;;;;;;;;;21.50;65.10;;;;;;5023716;28;1910;-67
2023/10/22 05:56:47;;;;;;;;;;;21.50;65.00;;;;;;5016623;28;1407;-69
2023/10/22 05:59:12;;;;;;;;;;;21.50;65.00;;;;;;5017179;28;1495;-68
2023/10/22 06:01:38;;;;;;;;;;;21.50;64.90;;;;;;5020448;28;1495;-69
2023/10/22 06:04:05;;;;;;;;;;;21.50;64.90;;;;;;5023195;28;1240;-68
2023/10/22 06:06:31;;;;;;;;;;;21.50;64.80;;;;;;5011169;28;1394;-72
2023/10/22 06:08:56;;;;;;;;;;;21.50;64.80;;;;;;5021399;28;1367;-68
2023/10/22 06:11:21;;;;;;;;;;;21.50;64.80;;;;;;5025201;28;1449;-69
2023/10/22 06:13:47;;;;;;;;;;;21.50;64.90;;;;;;5024389;28;1447;-71
2023/10/22 06:16:12;;;;;;;;;;;21.50;64.90;;;;;;5020386;28;1973;-68
2023/10/22 06:18:38;;;;;;;;;;;21.50;64.90;;;;;;5020515;28;1121;-69
2023/10/22 06:21:12;;;;;;;;;;;21.50;64.90;;;;;;5019107;28;1216;-68
2023/10/22 06:23:38;;;;;;;;;;;21.50;64.90;;;;;;5021534;28;1172;-68
2023/10/22 06:26:04;;;;;;;;;;;21.50;65.00;;;;;;5022792;28;1292;-68
2023/10/22 06:28:29;;;;;;;;;;;21.40;64.90;;;;;;5021026;28;1037;-68
2023/10/22 06:31:05;;;;;;;;;;;21.40;65.70;;;;;;5021591;28;1209;-69
2023/10/22 06:33:31;;;;;;;;;;;21.40;64.90;;;;;;5018743;28;1056;-68
2023/10/22 06:35:57;;;;;;;;;;;21.40;65.00;;;;;;5019940;28;1957;-68
2023/10/22 06:38:23;;;;;;;;;;;21.40;65.00;;;;;;5017361;28;902;-67
2023/10/22 06:40:48;;;;;;;;;;;21.40;65.10;;;;;;5019691;28;1340;-68
2023/10/22 06:43:13;;;;;;;;;;;21.40;65.10;;;;;;5021409;28;1115;-68
2023/10/22 06:45:39;;;;;;;;;;;21.40;65.10;;;;;;5017726;28;1271;-67
2023/10/22 06:48:04;;;;;;;;;;;21.40;65.10;;;;;;5019460;28;1279;-68
2023/10/22 06:50:30;;;;;;;;;;;21.40;65.10;;;;;;5018445;28;1273;-68
2023/10/22 06:52:55;;;;;;;;;;;21.40;65.20;;;;;;5021274;28;1406;-68
2023/10/22 06:55:21;;;;;;;;;;;21.40;65.20;;;;;;5017488;28;1906;-70
2023/10/22 06:57:46;;;;;;;;;;;21.40;65.20;;;;;;5020780;28;1324;-69
2023/10/22 07:00:13;;;;;;;;;;;21.40;65.60;;;;;;5022046;28;1253;-69
2023/10/22 07:02:38;;;;;;;;;;;21.40;66.10;;;;;;5022034;28;1600;-67
2023/10/22 07:05:07;;;;;;;;;;;21.40;66.20;;;;;;5020937;28;1292;-68
2023/10/22 07:07:32;;;;;;;;;;;21.40;66.30;;;;;;5018417;28;1482;-68
2023/10/22 07:09:58;;;;;;;;;;;21.50;66.50;;;;;;5022740;28;1386;-68
2023/10/22 07:12:23;;;;;;;;;;;21.50;66.50;;;;;;5020045;28;1450;-68
2023/10/22 07:14:49;;;;;;;;;;;21.50;66.50;;;;;;5018225;28;1902;-68
2023/10/22 07:17:14;;;;;;;;;;;21.50;66.70;;;;;;5014976;28;1507;-69
2023/10/22 07:19:40;;;;;;;;;;;21.50;66.60;;;;;;5021270;28;1567;-68
2023/10/22 07:22:05;;;;;;;;;;;21.40;66.70;;;;;;5018766;28;1574;-68
2023/10/22 07:24:32;;;;;;;;;;;21.40;66.70;;;;;;5018755;28;1256;-69
2023/10/22 07:26:57;;;;;;;;;;;21.40;66.70;;;;;;5016747;28;1415;-68
2023/10/22 07:29:23;;;;;;;;;;;21.40;66.80;;;;;;5016023;28;1477;-68
2023/10/22 07:31:51;;;;;;;;;;;21.40;66.90;;;;;;5060258;22;3604;-65
2023/10/22 07:34:17;;;;;;;;;;;21.40;67.00;;;;;;5065478;28;1969;-66
2023/10/22 07:36:42;;;;;;;;;;;21.30;67.20;;;;;;5065502;28;1412;-66
2023/10/22 07:39:08;;;;;;;;;;;21.30;67.20;;;;;;5068023;28;1385;-65
2023/10/22 07:41:33;;;;;;;;;;;21.30;67.40;;;;;;5053786;28;1666;-66
2023/10/22 07:43:59;;;;;;;;;;;21.30;67.50;;;;;;5041627;28;1164;-65
2023/10/22 07:46:24;;;;;;;;;;;21.30;67.60;;;;;;5042405;28;1486;-65
2023/10/22 07:48:50;;;;;;;;;;;21.30;67.70;;;;;;5040704;28;1352;-65
2023/10/22 07:51:18;;;;;;;;;;;21.30;67.80;;;;;;5040206;28;1562;-66
2023/10/22 07:53:44;;;;;;;;;;;21.30;68.00;;;;;;5043522;28;1266;-65
2023/10/22 07:56:10;;;;;;;;;;;21.30;68.10;;;;;;5044324;28;1906;-66
2023/10/22 07:58:36;;;;;;;;;;;21.30;68.20;;;;;;5042409;28;1461;-66
2023/10/22 08:01:02;;;;;;;;;;;21.30;68.40;;;;;;5054214;28;1624;-66
2023/10/22 08:03:29;;;;;;;;;;;21.30;68.30;;;;;;5042416;28;1470;-66
2023/10/22 08:05:54;;;;;;;;;;;21.30;68.90;;;;;;5039526;28;1254;-65
2023/10/22 08:08:20;;;;;;;;;;;21.30;68.70;;;;;;5046819;28;1283;-66
2023/10/22 08:10:46;;;;;;;;;;;21.30;69.60;;;;;;5039399;28;1766;-66
2023/10/22 08:13:11;;;;;;;;;;;21.30;68.90;;;;;;5043104;28;1439;-65
2023/10/22 08:15:37;;;;;;;;;;;21.30;69.00;;;;;;5041499;28;2040;-67
2023/10/22 08:18:03;;;;;;;;;;;21.30;68.90;;;;;;5040043;28;1289;-66
2023/10/22 08:20:28;;;;;;;;;;;21.30;69.00;;;;;;5042634;28;1404;-66
2023/10/22 08:22:55;;;;;;;;;;;21.30;68.90;;;;;;5039835;28;1384;-65
2023/10/22 08:25:20;;;;;;;;;;;21.40;68.90;;;;;;5039543;28;1445;-65
2023/10/22 08:27:46;;;;;;;;;;;21.40;68.90;;;;;;5042668;28;1747;-66
2023/10/22 08:30:11;;;;;;;;;;;21.40;68.80;;;;;;5040352;28;1379;-66
2023/10/22 08:32:40;;;;;;;;;;;21.40;68.70;;;;;;5040739;28;1299;-66
2023/10/22 08:35:06;;;;;;;;;;;21.40;68.80;;;;;;5039850;28;1971;-65
2023/10/22 08:37:31;;;;;;;;;;;21.40;68.70;;;;;;5038084;28;1181;-65
2023/10/22 08:39:57;;;;;;;;;;;21.40;68.80;;;;;;5040946;28;1470;-65
2023/10/22 08:42:23;;;;;;;;;;;21.40;69.00;;;;;;5039543;28;1323;-65
2023/10/22 08:44:49;;;;;;;;;;;21.40;68.90;;;;;;5040628;28;1480;-65
2023/10/22 08:47:15;;;;;;;;;;;21.40;68.90;;;;;;5040249;28;1485;-66
2023/10/22 08:49:41;;;;;;;;;;;21.40;68.80;;;;;;5039689;28;1259;-66
2023/10/22 08:52:09;;;;;;;;;;;21.40;69.00;;;;;;5040705;28;1675;-66
2023/10/22 08:54:35;;;;;;;;;;;21.40;69.00;;;;;;5027420;28;4467;-66
2023/10/22 08:57:01;;;;;;;;;;;21.40;68.80;;;;;;5032998;28;4573;-66
2023/10/22 08:59:27;;;;;;;;;;;21.40;68.90;;;;;;5027785;28;5097;-66
2023/10/22 09:01:53;;;;;;;;;;;21.40;68.70;;;;;;5040599;28;4574;-66
2023/10/22 09:04:19;;;;;;;;;;;21.50;68.80;;;;;;5037829;28;4556;-66
2023/10/22 09:06:44;;;;;;;;;;;21.50;68.70;;;;;;5034164;28;4049;-66
2023/10/22 09:09:20;;;;;;;;;;;21.50;68.70;;;;;;5036009;28;4313;-66
2023/10/22 09:11:53;;;;;;;;;;;21.50;68.60;;;;;;4999685;28;4456;-66
2023/10/22 09:14:22;;;;;;;;;;;21.50;68.70;;;;;;5018975;28;4548;-66
2023/10/22 09:16:47;;;;;;;;;;;21.50;68.70;;;;;;5033089;28;4308;-66
2023/10/22 09:19:13;;;;;;;;;;;21.50;68.70;;;;;;5038406;28;1264;-66
2023/10/22 09:21:41;;;;;;;;;;;21.50;68.60;;;;;;5039383;28;1374;-66
2023/10/22 09:24:07;;;;;;;;;;;21.50;68.80;;;;;;5041437;28;1430;-66
2023/10/22 09:26:47;;;;;;;;;;;21.50;68.70;;;;;;5041918;28;1399;-66
2023/10/22 09:29:13;;;;;;;;;;;21.50;68.60;;;;;;5027750;28;4896;-66
2023/10/22 09:31:38;;;;;;;;;;;21.50;68.70;;;;;;5043695;28;1456;-66
2023/10/22 09:34:05;;;;;;;;;;;21.50;68.60;;;;;;5025014;28;4129;-67
2023/10/22 09:36:31;;;;;;;;;;;21.50;68.90;;;;;;5041592;28;3501;-66
2023/10/22 09:38:56;;;;;;;;;;;21.50;68.80;;;;;;5030312;28;4356;-66
2023/10/22 09:41:29;;;;;;;;;;;21.50;68.80;;;;;;5039460;28;1370;-66
2023/10/22 09:43:55;;;;;;;;;;;21.50;68.90;;;;;;5042015;28;1405;-66
2023/10/22 09:46:23;;;;;;;;;;;21.50;68.90;;;;;;5038843;28;1160;-66
2023/10/22 09:48:48;;;;;;;;;;;21.50;69.00;;;;;;5046391;28;1552;-66
2023/10/22 09:51:15;;;;;;;;;;;21.50;69.10;;;;;;5040789;28;1181;-66
2023/10/22 09:53:51;;;;;;;;;;;21.50;69.40;;;;;;5043720;28;1288;-66
2023/10/22 09:56:17;;;;;;;;;;;21.50;69.60;;;;;;5040113;28;1996;-66
2023/10/22 09:58:43;;;;;;;;;;;21.40;69.50;;;;;;5037171;28;1424;-66
2023/10/22 10:01:10;;;;;;;;;;;21.40;69.70;;;;;;5040090;28;1288;-66
2023/10/22 10:03:36;;;;;;;;;;;21.40;70.00;;;;;;5037695;28;1255;-66
2023/10/22 10:06:03;;;;;;;;;;;21.40;70.10;;;;;;5036372;28;1446;-66
2023/10/22 10:08:28;;;;;;;;;;;21.40;70.00;;;;;;5039755;28;1233;-66
2023/10/22 10:10:54;;;;;;;;;;;21.40;70.10;;;;;;5040953;28;1538;-66
2023/10/22 10:13:19;;;;;;;;;;;21.40;70.10;;;;;;5042325;28;2021;-67
2023/10/22 10:15:45;;;;;;;;;;;21.40;70.10;;;;;;5037508;28;1914;-67
2023/10/22 10:18:11;;;;;;;;;;;21.40;70.20;;;;;;5045912;28;1353;-67
2023/10/22 10:20:39;;;;;;;;;;;21.40;70.10;;;;;;5039587;28;1646;-67
2023/10/22 10:23:08;;;;;;;;;;;21.40;70.20;;;;;;5041091;28;1482;-67
2023/10/22 10:25:34;;;;;;;;;;;21.40;70.20;;;;;;5039866;28;1573;-67
2023/10/22 10:28:01;;;;;;;;;;;21.40;70.30;;;;;;5042564;28;1462;-67
2023/10/22 10:30:27;;;;;;;;;;;21.30;70.20;;;;;;5021398;28;4169;-67
2023/10/22 10:32:53;;;;;;;;;;;21.40;70.20;;;;;;5040607;28;1472;-67
2023/10/22 10:35:19;;;;;;;;;;;21.40;70.10;;;;;;5036008;28;2017;-67
2023/10/22 10:38:03;;;;;;;;;;;21.40;70.00;;;;;;5037961;28;1621;-67
2023/10/22 10:40:51;;;;;;;;;;;21.40;69.90;;;;;;5039026;28;1365;-67
2023/10/22 10:43:18;;;;;;;;;;;21.50;70.10;;;;;;5029447;28;1486;-67
2023/10/22 10:46:02;;;;;;;;;;;21.50;70.10;;;;;;5044953;28;1371;-67
2023/10/22 10:48:45;;;;;;;;;;;21.50;70.00;;;;;;5039797;28;1526;-67
2023/10/22 10:51:20;;;;;;;;;;;21.50;69.80;;;;;;5038045;28;1335;-67
2023/10/22 10:54:01;;;;;;;;;;;21.50;69.90;;;;;;5039129;28;1328;-67
2023/10/22 10:56:47;;;;;;;;;;;21.50;69.80;;;;;;5038668;28;1979;-67
2023/10/22 10:59:26;;;;;;;;;;;21.50;69.80;;;;;;5037015;28;1235;-67
2023/10/22 11:02:04;;;;;;;;;;;21.50;69.70;;;;;;5040520;28;1577;-67
2023/10/22 11:04:30;;;;;;;;;;;21.50;69.70;;;;;;5041636;28;1247;-67
2023/10/22 11:06:56;;;;;;;;;;;21.50;69.70;;;;;;5038995;28;1260;-67
2023/10/22 11:09:21;;;;;;;;;;;21.50;69.60;;;;;;5037984;28;1938;-66
2023/10/22 11:11:56;;;;;;;;;;;21.50;69.60;;;;;;5037221;28;1601;-66
2023/10/22 11:14:22;;;;;;;;;;;21.50;69.60;;;;;;5041168;28;1898;-67
2023/10/22 11:16:54;;;;;;;;;;;21.50;69.60;;;;;;5044117;28;1551;-67
2023/10/22 11:19:27;;;;;;;;;;;21.50;69.60;;;;;;5043964;28;1377;-67
2023/10/22 11:21:54;;;;;;;;;;;21.50;69.60;;;;;;5041631;28;1471;-67
2023/10/22 11:24:21;;;;;;;;;;;21.50;69.70;;;;;;5044604;28;1184;-67
2023/10/22 11:26:47;;;;;;;;;;;21.50;69.70;;;;;;5040430;28;1324;-67
2023/10/22 11:29:12;;;;;;;;;;;21.50;69.70;;;;;;5043499;28;1420;-66
2023/10/22 11:31:38;;;;;;;;;;;21.50;69.70;;;;;;5040575;28;1322;-67
2023/10/22 11:34:13;;;;;;;;;;;21.50;69.80;;;;;;5042875;28;1243;-66
2023/10/22 11:36:39;;;;;;;;;;;21.50;69.80;;;;;;5043056;28;1598;-66
2023/10/22 11:39:18;;;;;;;;;;;21.50;69.70;;;;;;5043856;28;1593;-66
2023/10/22 11:41:43;;;;;;;;;;;21.50;69.90;;;;;;5041963;28;1325;-66
2023/10/22 11:44:10;;;;;;;;;;;21.50;69.90;;;;;;5044808;28;1418;-67
2023/10/22 11:46:41;;;;;;;;;;;21.50;69.80;;;;;;5043317;28;1299;-66
2023/10/22 11:49:07;;;;;;;;;;;21.50;69.90;;;;;;5044089;28;1435;-66
2023/10/22 11:51:42;;;;;;;;;;;21.40;69.90;;;;;;5044252;28;1544;-66
2023/10/22 11:54:07;;;;;;;;;;;21.40;70.00;;;;;;5039788;28;1530;-66
2023/10/22 11:56:33;;;;;;;;;;;21.40;70.00;;;;;;5041007;28;1902;-67
2023/10/22 11:58:58;;;;;;;;;;;21.40;70.10;;;;;;5039164;28;1007;-66
2023/10/22 12:01:24;;;;;;;;;;;21.40;70.10;;;;;;5032566;28;5410;-67
2023/10/22 12:03:50;;;;;;;;;;;21.50;70.20;;;;;;5039736;28;4454;-68
2023/10/22 12:06:15;;;;;;;;;;;21.40;70.20;;;;;;5040262;28;1454;-67
2023/10/22 12:08:41;;;;;;;;;;;21.40;69.70;;;;;;5047672;28;1691;-68
2023/10/22 12:11:06;;;;;;;;;;;21.30;69.00;;;;;;5040552;28;1883;-67
2023/10/22 12:13:32;;;;;;;;;;;21.30;68.50;;;;;;5043956;28;1846;-68
2023/10/22 12:15:57;;;;;;;;;;;21.30;68.40;;;;;;5042830;28;1902;-68
2023/10/22 12:18:23;;;;;;;;;;;21.20;68.10;;;;;;5039475;28;1861;-68
2023/10/22 12:20:49;;;;;;;;;;;21.20;68.20;;;;;;5044919;28;2130;-68
2023/10/22 12:23:14;;;;;;;;;;;21.10;68.10;;;;;;5045521;28;2026;-68
2023/10/22 12:25:40;;;;;;;;;;;21.10;68.00;;;;;;5042649;28;1578;-68
2023/10/22 12:28:05;;;;;;;;;;;21.10;68.00;;;;;;5038444;28;1249;-68
2023/10/22 12:30:31;;;;;;;;;;;21.00;68.50;;;;;;5042570;28;1505;-68
2023/10/22 12:32:56;;;;;;;;;;;21.00;66.10;;;;;;5035477;28;1423;-68
2023/10/22 12:35:21;;;;;;;;;;;21.00;66.10;;;;;;5041457;28;2156;-68
2023/10/22 12:37:47;;;;;;;;;;;20.90;66.40;;;;;;5041139;28;1234;-68
2023/10/22 12:40:12;;;;;;;;;;;20.90;66.60;;;;;;5042121;28;1343;-68
2023/10/22 12:42:41;;;;;;;;;;;20.90;66.80;;;;;;5049093;28;1558;-68
2023/10/22 12:45:09;;;;;;;;;;;20.80;66.80;;;;;;5043366;28;2263;-68
2023/10/22 12:47:35;;;;;;;;;;;20.80;67.00;;;;;;5040611;28;1648;-68
2023/10/22 12:50:00;;;;;;;;;;;20.80;67.00;;;;;;5044040;28;1235;-68
2023/10/22 12:52:26;;;;;;;;;;;20.80;67.10;;;;;;5041462;28;2491;-68
2023/10/22 12:54:51;;;;;;;;;;;20.80;67.10;;;;;;5045302;28;2462;-68
2023/10/22 12:57:17;;;;;;;;;;;20.80;67.10;;;;;;5046878;28;2532;-68
2023/10/22 12:59:42;;;;;;;;;;;20.80;67.00;;;;;;5044276;28;2739;-68
2023/10/22 13:02:08;;;;;;;;;;;20.70;66.90;;;;;;5044407;28;2392;-68
2023/10/22 13:04:33;;;;;;;;;;;20.70;66.80;;;;;;5038338;28;1354;-68
2023/10/22 13:06:59;;;;;;;;;;;20.70;66.80;;;;;;5039847;28;1249;-68
2023/10/22 13:09:24;;;;;;;;;;;20.70;66.70;;;;;;5039280;28;1548;-68
2023/10/22 13:11:49;;;;;;;;;;;20.70;66.70;;;;;;5040426;28;1724;-68
2023/10/22 13:14:18;;;;;;;;;;;20.70;66.70;;;;;;5041403;28;1562;-68
2023/10/22 13:16:44;;;;;;;;;;;20.70;66.70;;;;;;5039861;28;1330;-68
2023/10/22 13:19:09;;;;;;;;;;;20.70;66.60;;;;;;5039787;28;1274;-68
2023/10/22 13:21:35;;;;;;;;;;;20.70;66.30;;;;;;5039472;28;1334;-68
2023/10/22 13:24:03;;;;;;;;;;;20.60;66.10;;;;;;5038650;28;1344;-68
2023/10/22 13:26:29;;;;;;;;;;;20.60;66.00;;;;;;5041123;28;1535;-68
2023/10/22 13:28:55;;;;;;;;;;;20.60;65.90;;;;;;5039903;28;1359;-68
2023/10/22 13:31:20;;;;;;;;;;;20.60;65.80;;;;;;5040082;28;1454;-69
2023/10/22 13:33:46;;;;;;;;;;;20.60;65.70;;;;;;5039177;28;1482;-69
2023/10/22 13:36:11;;;;;;;;;;;20.60;65.60;;;;;;5041715;28;1942;-68
2023/10/22 13:38:37;;;;;;;;;;;20.60;65.60;;;;;;5039214;28;1336;-69
2023/10/22 13:41:02;;;;;;;;;;;20.60;66.20;;;;;;5041801;28;1677;-69
2023/10/22 13:43:28;;;;;;;;;;;20.60;65.50;;;;;;5042358;28;1211;-68
2023/10/22 13:45:53;;;;;;;;;;;20.60;65.50;;;;;;5040475;28;1347;-68
2023/10/22 13:48:19;;;;;;;;;;;20.60;65.40;;;;;;5038428;28;1398;-68
2023/10/22 13:50:44;;;;;;;;;;;20.50;65.40;;;;;;5038177;28;1488;-68
2023/10/22 13:53:10;;;;;;;;;;;20.50;65.20;;;;;;5043315;28;1516;-68
2023/10/22 13:55:35;;;;;;;;;;;20.50;65.20;;;;;;5044552;28;1906;-68
2023/10/22 13:58:01;;;;;;;;;;;20.50;65.20;;;;;;5039862;28;1663;-68
2023/10/22 14:00:26;;;;;;;;;;;20.50;65.20;;;;;;5040316;28;1601;-68
2023/10/22 14:02:52;;;;;;;;;;;20.50;65.20;;;;;;5038326;28;1580;-67
2023/10/22 14:05:17;;;;;;;;;;;20.50;65.10;;;;;;5039749;28;1341;-68
2023/10/22 14:07:44;;;;;;;;;;;20.50;65.10;;;;;;5034452;28;1442;-68
2023/10/22 14:10:10;;;;;;;;;;;20.50;65.10;;;;;;5040119;28;1094;-68
2023/10/22 14:12:35;;;;;;;;;;;20.40;65.10;;;;;;5037308;28;2422;-68
2023/10/22 14:15:01;;;;;;;;;;;20.50;65.00;;;;;;5038138;28;1979;-68
2023/10/22 14:17:26;;;;;;;;;;;20.40;65.10;;;;;;5037936;28;1393;-67
2023/10/22 14:19:52;;;;;;;;;;;20.40;65.10;;;;;;5039181;28;1232;-68
2023/10/22 14:22:18;;;;;;;;;;;20.40;64.90;;;;;;5039895;28;1282;-68
2023/10/22 14:24:43;;;;;;;;;;;20.40;64.90;;;;;;5036844;28;1451;-68
2023/10/22 14:27:10;;;;;;;;;;;20.40;65.00;;;;;;5039846;28;1363;-67